Time;durP1;ratioP1;P1;durP2;ratioP2;P2;SDS_P1;SDS_P2;PMS_P1;PMS_P2;Temp;Humidity;BMP_temperature;BMP_pressure;BME280_temperature;BME280_humidity;BME280_pressure;Samples;Min_cycle;Max_cycle;Signal;HPM_P1;HPM_P2
2021/01/25 00:00:35;;;;;;;8.75;5.10;;;0.10;79.20;;;;;;5065270;28;20032;-68
2021/01/25 00:03:01;;;;;;;11.60;6.13;;;0.10;79.20;;;;;;5060252;28;20419;-67
2021/01/25 00:05:27;;;;;;;11.13;6.05;;;0.10;79.20;;;;;;5038098;28;20084;-67
2021/01/25 00:07:53;;;;;;;8.88;6.35;;;0.10;79.30;;;;;;5058222;28;20021;-67
2021/01/25 00:10:19;;;;;;;10.77;6.03;;;0.10;79.40;;;;;;5036734;28;20067;-67
2021/01/25 00:12:44;;;;;;;11.20;6.28;;;0.20;79.50;;;;;;5067574;28;20078;-68
2021/01/25 00:15:10;;;;;;;8.85;5.03;;;0.20;79.40;;;;;;5055521;28;20484;-67
2021/01/25 00:17:36;;;;;;;6.45;4.25;;;0.30;79.20;;;;;;5063972;28;20036;-67
2021/01/25 00:20:02;;;;;;;8.00;4.50;;;0.30;79.00;;;;;;5056115;28;20511;-67
2021/01/25 00:22:28;;;;;;;7.25;4.05;;;0.20;78.80;;;;;;5064673;28;20029;-67
2021/01/25 00:24:54;;;;;;;5.03;3.70;;;0.10;79.00;;;;;;5050687;28;20020;-67
2021/01/25 00:27:19;;;;;;;5.45;3.60;;;0.10;79.10;;;;;;5062770;28;20451;-68
2021/01/25 00:29:45;;;;;;;6.18;3.35;;;0.00;78.90;;;;;;5055991;28;20100;-68
2021/01/25 00:32:11;;;;;;;5.60;3.47;;;0.00;79.10;;;;;;5054887;28;20033;-67
2021/01/25 00:34:38;;;;;;;5.43;3.63;;;0.00;79.30;;;;;;5044072;28;20029;-67
2021/01/25 00:37:04;;;;;;;4.30;3.25;;;0.10;79.40;;;;;;5067174;28;20021;-67
2021/01/25 00:39:29;;;;;;;6.90;3.53;;;0.10;79.30;;;;;;5047000;28;20090;-67
2021/01/25 00:41:55;;;;;;;6.90;3.05;;;0.10;79.20;;;;;;5066007;28;20075;-67
2021/01/25 00:44:21;;;;;;;6.90;3.33;;;0.10;79.10;;;;;;5052635;28;20025;-68
2021/01/25 00:46:47;;;;;;;7.30;3.28;;;0.10;79.10;;;;;;5071039;28;20023;-67
2021/01/25 00:49:12;;;;;;;7.85;2.97;;;0.10;78.90;;;;;;5068389;28;20021;-67
2021/01/25 00:51:38;;;;;;;4.20;3.00;;;0.00;78.90;;;;;;5071052;28;20028;-67
2021/01/25 00:54:03;;;;;;;5.30;3.15;;;0.00;79.00;;;;;;5066249;28;20104;-68
2021/01/25 00:56:29;;;;;;;7.57;3.35;;;0.00;79.10;;;;;;5053561;28;20032;-68
2021/01/25 00:58:54;;;;;;;5.53;4.00;;;0.00;79.10;;;;;;5066700;28;20025;-67
2021/01/25 01:01:20;;;;;;;6.97;4.57;;;0.10;79.10;;;;;;5059261;28;20029;-67
2021/01/25 01:03:46;;;;;;;11.70;6.50;;;0.10;78.80;;;;;;5065080;28;20715;-68
2021/01/25 01:06:12;;;;;;;15.27;6.10;;;0.10;78.70;;;;;;5041433;28;20023;-67
2021/01/25 01:08:37;;;;;;;6.55;4.70;;;0.10;78.90;;;;;;5054712;28;20119;-68
2021/01/25 01:11:03;;;;;;;12.35;5.45;;;0.20;79.00;;;;;;5051206;28;20485;-67
2021/01/25 01:13:28;;;;;;;12.55;5.65;;;0.20;79.00;;;;;;5046995;28;20096;-68
2021/01/25 01:15:54;;;;;;;11.75;5.45;;;0.30;79.10;;;;;;5055035;28;20689;-68
2021/01/25 01:18:19;;;;;;;10.05;5.50;;;0.40;79.10;;;;;;5052735;28;20409;-67
2021/01/25 01:20:45;;;;;;;12.57;5.05;;;0.40;79.00;;;;;;5051867;28;20021;-67
2021/01/25 01:23:11;;;;;;;8.38;5.07;;;0.50;79.00;;;;;;5060979;28;20020;-67
2021/01/25 01:25:36;;;;;;;9.27;5.50;;;0.50;79.00;;;;;;5053864;28;20016;-68
2021/01/25 01:28:02;;;;;;;11.57;5.13;;;0.60;79.00;;;;;;5049569;28;20086;-68
2021/01/25 01:30:27;;;;;;;7.25;4.53;;;0.50;78.80;;;;;;5070775;28;20031;-68
2021/01/25 01:32:53;;;;;;;5.85;4.40;;;0.50;78.70;;;;;;5070883;28;20017;-67
2021/01/25 01:35:19;;;;;;;6.70;4.30;;;0.40;78.80;;;;;;5067725;28;20028;-68
2021/01/25 01:37:45;;;;;;;6.30;4.07;;;0.40;79.10;;;;;;5038079;28;20036;-68
2021/01/25 01:40:12;;;;;;;11.85;4.65;;;0.40;79.30;;;;;;5063068;28;20025;-68
2021/01/25 01:42:38;;;;;;;8.63;4.72;;;0.50;79.30;;;;;;5066912;28;20024;-68
2021/01/25 01:45:05;;;;;;;6.32;4.20;;;0.50;79.20;;;;;;5066095;28;20023;-68
2021/01/25 01:47:32;;;;;;;6.43;3.90;;;0.60;79.10;;;;;;5071890;28;20032;-68
2021/01/25 01:49:58;;;;;;;6.40;3.78;;;0.50;78.90;;;;;;5052798;28;20021;-67
2021/01/25 01:52:24;;;;;;;5.82;3.22;;;0.50;78.90;;;;;;5053120;28;20024;-67
2021/01/25 01:54:53;;;;;;;5.85;3.72;;;0.50;79.00;;;;;;5058749;28;20056;-68
2021/01/25 01:57:18;;;;;;;6.35;3.92;;;0.50;79.10;;;;;;5052484;28;20028;-68
2021/01/25 01:59:44;;;;;;;5.68;3.30;;;0.60;78.90;;;;;;5071742;28;20090;-67
2021/01/25 02:02:10;;;;;;;6.88;3.85;;;0.60;78.80;;;;;;5049726;28;20029;-68
2021/01/25 02:04:36;;;;;;;7.43;4.13;;;0.60;78.70;;;;;;5071515;28;20103;-68
2021/01/25 02:07:04;;;;;;;7.60;4.57;;;0.60;78.80;;;;;;5063028;28;20517;-68
2021/01/25 02:09:32;;;;;;;5.13;4.43;;;0.60;78.90;;;;;;5072366;28;20042;-68
2021/01/25 02:11:58;;;;;;;7.47;4.57;;;0.70;78.80;;;;;;5053416;28;20108;-68
2021/01/25 02:14:25;;;;;;;6.47;4.22;;;0.70;78.80;;;;;;5043397;28;20415;-68
2021/01/25 02:16:51;;;;;;;7.07;4.13;;;0.70;78.80;;;;;;5056725;28;20415;-67
2021/01/25 02:19:29;;;;;;;7.55;4.25;;;0.70;78.80;;;;;;5049245;28;20024;-68
2021/01/25 02:22:16;;;;;;;5.65;3.70;;;0.70;78.70;;;;;;5062598;28;20013;-68
2021/01/25 02:25:01;;;;;;;5.60;3.83;;;0.70;78.80;;;;;;5059833;28;20037;-68
2021/01/25 02:27:31;;;;;;;6.30;3.63;;;0.60;78.70;;;;;;5049374;28;20089;-68
2021/01/25 02:29:58;;;;;;;5.53;4.15;;;0.50;78.70;;;;;;5051264;28;20117;-68
2021/01/25 02:32:25;;;;;;;6.63;3.90;;;0.50;78.90;;;;;;5067838;28;20384;-68
2021/01/25 02:34:53;;;;;;;10.07;3.70;;;0.50;79.10;;;;;;5052672;28;20097;-68
2021/01/25 02:37:20;;;;;;;7.55;4.30;;;0.60;79.00;;;;;;5050803;28;20101;-68
2021/01/25 02:39:46;;;;;;;6.57;4.05;;;0.60;79.00;;;;;;5043485;28;20035;-68
2021/01/25 02:42:12;;;;;;;6.07;4.03;;;0.60;78.90;;;;;;5069138;28;20020;-68
2021/01/25 02:44:39;;;;;;;7.18;4.20;;;0.70;78.80;;;;;;5051866;28;20512;-68
2021/01/25 02:47:04;;;;;;;5.40;3.80;;;0.70;78.60;;;;;;5057826;28;20024;-68
2021/01/25 02:49:30;;;;;;;7.63;3.58;;;0.80;78.50;;;;;;5068430;28;20033;-68
2021/01/25 02:51:56;;;;;;;6.03;3.85;;;0.70;78.40;;;;;;5046130;28;20024;-68
2021/01/25 02:54:22;;;;;;;6.20;4.07;;;0.80;78.60;;;;;;5061023;28;20064;-68
2021/01/25 02:56:49;;;;;;;5.50;3.70;;;0.80;78.40;;;;;;5039327;28;20056;-67
2021/01/25 02:59:16;;;;;;;6.03;3.00;;;0.70;78.40;;;;;;5068184;28;20051;-68
2021/01/25 03:01:44;;;;;;;4.50;2.95;;;0.70;78.30;;;;;;5059522;28;20025;-68
2021/01/25 03:04:10;;;;;;;4.18;2.97;;;0.50;78.30;;;;;;5042489;28;20029;-67
2021/01/25 03:06:36;;;;;;;4.65;3.13;;;0.50;78.50;;;;;;5061600;28;20380;-67
2021/01/25 03:09:03;;;;;;;6.13;3.17;;;0.40;78.60;;;;;;5050124;28;20075;-68
2021/01/25 03:11:28;;;;;;;4.70;2.95;;;0.40;78.70;;;;;;5070969;28;20052;-68
2021/01/25 03:14:05;;;;;;;5.90;2.95;;;0.40;78.80;;;;;;5045293;28;20079;-67
2021/01/25 03:16:31;;;;;;;6.20;2.70;;;0.40;78.70;;;;;;5057149;28;20082;-68
2021/01/25 03:18:56;;;;;;;4.80;2.97;;;0.30;78.70;;;;;;5047845;28;20037;-68
2021/01/25 03:21:22;;;;;;;3.83;3.05;;;0.30;78.70;;;;;;5060205;28;20412;-68
2021/01/25 03:23:47;;;;;;;5.68;3.03;;;0.30;78.90;;;;;;5067002;28;20443;-68
2021/01/25 03:26:14;;;;;;;4.80;3.22;;;0.40;78.70;;;;;;5047112;28;20021;-68
2021/01/25 03:28:40;;;;;;;5.75;2.75;;;0.30;78.50;;;;;;5057771;28;20020;-68
2021/01/25 03:31:05;;;;;;;5.63;3.25;;;0.30;78.60;;;;;;5062685;28;20024;-68
2021/01/25 03:33:31;;;;;;;4.05;3.05;;;0.30;78.60;;;;;;5063039;28;20085;-68
2021/01/25 03:35:56;;;;;;;5.72;3.45;;;0.30;78.50;;;;;;5040480;28;20033;-68
2021/01/25 03:38:22;;;;;;;3.92;2.67;;;0.30;78.50;;;;;;5053206;28;20029;-68
2021/01/25 03:40:47;;;;;;;4.60;3.08;;;0.30;78.50;;;;;;5049800;28;20050;-68
2021/01/25 03:43:14;;;;;;;5.90;3.30;;;0.30;78.40;;;;;;5065471;28;20025;-67
2021/01/25 03:45:40;;;;;;;5.05;3.10;;;0.20;78.50;;;;;;5059018;28;20025;-68
2021/01/25 03:48:07;;;;;;;6.65;3.42;;;0.30;78.60;;;;;;5046763;28;20024;-67
2021/01/25 03:50:32;;;;;;;6.72;3.90;;;0.30;78.70;;;;;;5052313;28;20032;-68
2021/01/25 03:53:04;;;;;;;6.00;4.15;;;0.30;78.80;;;;;;5047041;28;20031;-68
2021/01/25 03:55:30;;;;;;;7.35;3.92;;;0.30;78.80;;;;;;5068888;28;20032;-67
2021/01/25 03:57:56;;;;;;;6.38;4.03;;;0.40;78.60;;;;;;5049330;28;20504;-67
2021/01/25 04:00:22;;;;;;;6.55;4.43;;;0.40;78.60;;;;;;5055952;28;20051;-68
2021/01/25 04:02:48;;;;;;;7.15;4.13;;;0.40;78.60;;;;;;5055869;23;20037;-69
2021/01/25 04:05:13;;;;;;;5.20;3.90;;;0.50;78.70;;;;;;5030047;28;20034;-70
2021/01/25 04:07:40;;;;;;;4.63;3.83;;;0.50;78.70;;;;;;5040594;28;20041;-70
2021/01/25 04:10:06;;;;;;;9.10;4.25;;;0.60;78.60;;;;;;5048858;28;20044;-71
2021/01/25 04:12:32;;;;;;;7.72;4.15;;;0.70;78.40;;;;;;5046730;28;20056;-69
2021/01/25 04:14:58;;;;;;;7.68;4.22;;;0.70;78.30;;;;;;5047424;28;20055;-71
2021/01/25 04:17:24;;;;;;;8.90;4.68;;;0.70;78.30;;;;;;5030284;28;20029;-71
2021/01/25 04:19:50;;;;;;;7.50;4.97;;;0.70;78.30;;;;;;5048526;28;20065;-70
2021/01/25 04:22:15;;;;;;;6.65;4.55;;;0.80;78.30;;;;;;5047390;28;20053;-70
2021/01/25 04:24:41;;;;;;;8.75;4.45;;;0.80;78.20;;;;;;5042742;28;20020;-69
2021/01/25 04:27:12;;;;;;;6.53;4.35;;;0.90;78.10;;;;;;5026424;28;20021;-69
2021/01/25 04:29:41;;;;;;;7.97;4.70;;;0.90;78.10;;;;;;5040061;28;20115;-71
2021/01/25 04:32:07;;;;;;;9.25;5.70;;;0.90;78.10;;;;;;5046146;28;20329;-70
2021/01/25 04:34:33;;;;;;;10.10;5.80;;;0.90;78.00;;;;;;5046910;28;20029;-70
2021/01/25 04:36:59;;;;;;;8.35;5.38;;;0.90;77.90;;;;;;5048177;28;20032;-70
2021/01/25 04:39:24;;;;;;;8.80;5.63;;;0.80;77.80;;;;;;5052196;28;20043;-71
2021/01/25 04:41:50;;;;;;;8.45;5.63;;;0.70;77.90;;;;;;5051510;28;20096;-70
2021/01/25 04:44:17;;;;;;;10.00;5.32;;;0.60;78.10;;;;;;5051240;28;20515;-69
2021/01/25 04:46:45;;;;;;;10.35;5.32;;;0.50;78.20;;;;;;5052634;28;20021;-71
2021/01/25 04:49:13;;;;;;;11.45;5.43;;;0.50;78.60;;;;;;5047349;28;20021;-71
2021/01/25 04:51:40;;;;;;;10.18;5.88;;;0.50;78.60;;;;;;5050149;28;20091;-71
2021/01/25 04:54:07;;;;;;;9.45;5.65;;;0.40;78.70;;;;;;5049866;28;20064;-70
2021/01/25 04:56:35;;;;;;;7.88;5.82;;;0.40;79.00;;;;;;5034584;28;20037;-70
2021/01/25 04:59:01;;;;;;;8.18;5.40;;;0.40;79.30;;;;;;5051087;28;20036;-71
2021/01/25 05:01:27;;;;;;;10.90;6.18;;;0.40;79.20;;;;;;5050407;28;20020;-70
2021/01/25 05:03:52;;;;;;;8.45;5.25;;;0.30;79.20;;;;;;5048004;28;20523;-70
2021/01/25 05:06:19;;;;;;;7.93;5.30;;;0.20;79.40;;;;;;5037335;28;20038;-70
2021/01/25 05:08:45;;;;;;;7.88;5.20;;;0.20;79.40;;;;;;5036022;28;20025;-70
2021/01/25 05:11:15;;;;;;;6.68;4.95;;;0.20;79.80;;;;;;5034933;28;20054;-70
2021/01/25 05:13:41;;;;;;;9.25;5.28;;;0.10;79.90;;;;;;5047961;28;20377;-70
2021/01/25 05:16:18;;;;;;;7.45;4.65;;;0.00;79.80;;;;;;5050545;28;20108;-70
2021/01/25 05:18:45;;;;;;;7.18;4.88;;;0.00;80.00;;;;;;5049148;28;20021;-70
2021/01/25 05:21:11;;;;;;;8.68;5.03;;;-0.10;80.10;;;;;;5049802;28;20040;-69
2021/01/25 05:23:38;;;;;;;7.07;4.88;;;-0.10;80.10;;;;;;5045551;28;20021;-69
2021/01/25 05:26:08;;;;;;;6.65;4.88;;;-0.10;80.40;;;;;;5050318;28;21865;-70
2021/01/25 05:28:41;;;;;;;10.38;5.15;;;-0.10;80.50;;;;;;5050146;28;20035;-68
2021/01/25 05:31:24;;;;;;;6.82;4.50;;;-0.10;80.60;;;;;;5049951;28;20033;-71
2021/01/25 05:33:51;;;;;;;7.07;4.88;;;-0.10;80.60;;;;;;5047496;28;20102;-69
2021/01/25 05:36:20;;;;;;;8.90;5.55;;;-0.10;80.60;;;;;;5048796;28;20033;-70
2021/01/25 05:38:50;;;;;;;8.13;5.40;;;-0.10;80.80;;;;;;5052339;28;20480;-71
2021/01/25 05:41:17;;;;;;;8.90;5.13;;;-0.10;80.80;;;;;;5048399;28;20029;-71
2021/01/25 05:43:43;;;;;;;10.73;5.90;;;-0.10;80.80;;;;;;5047544;28;20056;-70
2021/01/25 05:46:13;;;;;;;7.68;5.40;;;-0.10;80.80;;;;;;5051042;28;20079;-70
2021/01/25 05:48:40;;;;;;;10.30;6.35;;;-0.10;81.20;;;;;;5048742;28;20033;-70
2021/01/25 05:51:13;;;;;;;12.13;5.97;;;0.00;81.00;;;;;;5047452;28;20057;-71
2021/01/25 05:53:39;;;;;;;7.68;5.43;;;0.00;81.20;;;;;;5051020;28;20036;-71
2021/01/25 05:56:06;;;;;;;11.55;5.70;;;0.00;81.00;;;;;;5048799;28;20578;-71
2021/01/25 05:58:31;;;;;;;9.02;6.18;;;0.10;81.10;;;;;;5048084;28;21889;-70
2021/01/25 06:00:58;;;;;;;8.77;5.97;;;0.10;81.00;;;;;;5042865;28;20021;-70
2021/01/25 06:03:26;;;;;;;14.40;6.15;;;0.10;81.00;;;;;;5044411;28;20477;-70
2021/01/25 06:05:52;;;;;;;9.80;6.15;;;0.20;81.20;;;;;;5047639;28;20035;-70
2021/01/25 06:08:47;;;;;;;10.15;5.90;;;0.20;81.20;;;;;;5052125;28;20418;-70
2021/01/25 06:11:26;;;;;;;9.32;5.45;;;0.30;81.20;;;;;;5041516;28;20318;-70
2021/01/25 06:13:56;;;;;;;12.63;6.72;;;0.40;81.10;;;;;;5050870;28;20021;-67
2021/01/25 06:16:24;;;;;;;10.23;5.85;;;0.40;80.90;;;;;;5049476;28;21633;-67
2021/01/25 06:18:50;;;;;;;9.52;5.82;;;0.40;80.80;;;;;;5031251;28;20033;-68
2021/01/25 06:21:23;;;;;;;13.85;7.03;;;0.30;80.80;;;;;;5050275;28;20017;-69
2021/01/25 06:23:52;;;;;;;12.88;6.47;;;0.30;80.90;;;;;;5046722;28;20070;-69
2021/01/25 06:26:18;;;;;;;11.23;6.00;;;0.20;81.00;;;;;;5048559;28;20024;-72
2021/01/25 06:28:47;;;;;;;10.45;6.38;;;0.30;81.20;;;;;;5033481;28;20033;-71
2021/01/25 06:31:16;;;;;;;11.48;6.65;;;0.30;81.30;;;;;;5030578;28;20094;-68
2021/01/25 06:33:46;;;;;;;9.82;6.40;;;0.30;81.30;;;;;;5042890;28;20040;-68
2021/01/25 06:36:15;;;;;;;10.77;6.00;;;0.30;81.30;;;;;;5012248;28;20108;-75
2021/01/25 06:38:42;;;;;;;10.98;7.07;;;0.40;81.80;;;;;;5034175;28;20041;-75
2021/01/25 06:41:14;;;;;;;9.30;6.10;;;0.40;81.70;;;;;;5033198;28;20527;-77
2021/01/25 06:43:45;;;;;;;9.43;5.87;;;0.40;81.10;;;;;;5033643;28;22071;-77
2021/01/25 06:46:17;;;;;;;9.97;6.73;;;0.40;81.10;;;;;;5019861;28;20021;-76
2021/01/25 06:48:47;;;;;;;10.20;6.43;;;0.40;81.20;;;;;;5031167;28;20029;-77
2021/01/25 06:51:14;;;;;;;8.85;6.72;;;0.40;81.20;;;;;;5030024;28;20029;-77
2021/01/25 06:53:41;;;;;;;11.10;7.18;;;0.40;81.20;;;;;;5033582;28;20119;-68
2021/01/25 06:56:07;;;;;;;10.35;5.97;;;0.40;81.30;;;;;;5031732;28;20033;-67
2021/01/25 06:58:33;;;;;;;9.57;6.03;;;0.40;81.40;;;;;;5049583;28;20389;-69
2021/01/25 07:01:08;;;;;;;12.32;6.43;;;0.40;81.50;;;;;;5050438;28;20041;-69
2021/01/25 07:03:57;;;;;;;11.73;6.60;;;0.50;81.60;;;;;;5049619;28;20067;-68
2021/01/25 07:06:37;;;;;;;11.07;6.70;;;0.50;81.40;;;;;;5050879;28;20105;-69
2021/01/25 07:09:05;;;;;;;9.38;6.90;;;0.60;81.30;;;;;;5050802;28;20090;-69
2021/01/25 07:11:32;;;;;;;14.18;7.60;;;0.60;81.20;;;;;;5031879;28;20166;-68
2021/01/25 07:13:58;;;;;;;13.93;8.00;;;0.60;81.30;;;;;;5049904;28;20498;-68
2021/01/25 07:16:24;;;;;;;10.52;6.38;;;0.70;81.30;;;;;;5032183;28;20037;-69
2021/01/25 07:18:52;;;;;;;11.50;6.88;;;0.80;81.30;;;;;;5050813;28;20542;-68
2021/01/25 07:21:18;;;;;;;13.73;6.70;;;0.80;81.00;;;;;;5050070;28;20082;-69
2021/01/25 07:23:45;;;;;;;12.77;7.68;;;0.70;81.00;;;;;;5050727;28;20405;-67
2021/01/25 07:26:13;;;;;;;10.05;6.28;;;0.70;81.00;;;;;;5026081;28;20017;-68
2021/01/25 07:28:39;;;;;;;10.07;6.05;;;0.70;81.20;;;;;;5034191;28;20033;-68
2021/01/25 07:31:05;;;;;;;10.50;6.75;;;0.70;81.30;;;;;;5050526;28;20029;-68
2021/01/25 07:33:31;;;;;;;8.55;6.25;;;0.60;81.20;;;;;;5026489;28;20025;-68
2021/01/25 07:35:58;;;;;;;11.55;6.65;;;0.60;81.30;;;;;;5032066;28;20079;-67
2021/01/25 07:38:24;;;;;;;10.40;6.82;;;0.70;81.40;;;;;;5043449;28;20025;-67
2021/01/25 07:40:51;;;;;;;11.48;6.63;;;0.70;81.30;;;;;;5050111;28;20899;-68
2021/01/25 07:43:18;;;;;;;14.43;7.15;;;0.70;81.40;;;;;;5049568;28;20029;-68
2021/01/25 07:45:45;;;;;;;12.68;7.28;;;0.80;81.30;;;;;;5048422;28;20040;-69
2021/01/25 07:48:12;;;;;;;14.20;7.78;;;0.80;81.30;;;;;;5050135;28;20017;-69
2021/01/25 07:50:38;;;;;;;13.52;7.75;;;0.90;81.40;;;;;;5049797;28;20033;-70
2021/01/25 07:53:05;;;;;;;34.95;17.90;;;0.90;81.30;;;;;;5032033;28;20029;-68
2021/01/25 07:55:31;;;;;;;12.32;8.57;;;1.00;81.20;;;;;;5030891;28;20051;-68
2021/01/25 07:58:09;;;;;;;12.55;8.10;;;1.10;81.10;;;;;;5050380;28;20032;-68
2021/01/25 08:00:40;;;;;;;12.25;8.00;;;1.10;80.80;;;;;;5031128;28;20078;-68
2021/01/25 08:03:30;;;;;;;14.23;7.53;;;1.10;80.80;;;;;;5047490;28;20098;-68
2021/01/25 08:05:59;;;;;;;10.63;7.10;;;1.10;80.80;;;;;;5031567;28;20326;-68
2021/01/25 08:08:27;;;;;;;14.27;8.30;;;1.00;80.60;;;;;;5030762;28;20469;-68
2021/01/25 08:10:54;;;;;;;15.82;9.27;;;1.00;80.60;;;;;;5030264;28;20029;-68
2021/01/25 08:13:33;;;;;;;16.55;8.80;;;0.90;80.70;;;;;;5036854;28;20033;-68
2021/01/25 08:16:06;;;;;;;16.73;8.98;;;0.90;80.90;;;;;;5047770;28;20081;-68
2021/01/25 08:18:49;;;;;;;21.90;12.60;;;0.90;81.00;;;;;;5048276;28;20021;-68
2021/01/25 08:21:20;;;;;;;15.30;8.68;;;0.90;81.20;;;;;;5050037;28;20029;-68
2021/01/25 08:23:50;;;;;;;11.07;7.10;;;1.00;81.20;;;;;;5040175;28;20033;-68
2021/01/25 08:26:25;;;;;;;11.32;8.05;;;0.90;81.10;;;;;;5043198;28;20427;-68
2021/01/25 08:29:02;;;;;;;13.52;8.27;;;0.90;81.00;;;;;;5030541;28;20037;-68
2021/01/25 08:31:39;;;;;;;13.30;8.43;;;0.80;81.20;;;;;;5037014;28;20072;-67
2021/01/25 08:34:17;;;;;;;14.20;8.32;;;0.80;81.30;;;;;;5033677;28;20069;-68
2021/01/25 08:36:42;;;;;;;14.90;8.90;;;0.80;81.60;;;;;;5021947;28;20427;-68
2021/01/25 08:39:14;;;;;;;13.27;8.90;;;0.80;81.60;;;;;;5031755;28;20029;-67
2021/01/25 08:41:54;;;;;;;15.32;9.05;;;0.90;81.70;;;;;;5040294;28;20017;-69
2021/01/25 08:44:22;;;;;;;15.07;8.82;;;0.90;81.70;;;;;;5040223;28;20032;-68
2021/01/25 08:46:48;;;;;;;14.38;8.15;;;1.00;81.60;;;;;;5045830;28;20021;-68
2021/01/25 08:49:40;;;;;;;15.00;9.10;;;1.00;81.70;;;;;;5045659;28;20837;-67
2021/01/25 08:52:09;;;;;;;16.20;9.60;;;1.10;81.60;;;;;;5024945;28;20032;-69
2021/01/25 08:54:39;;;;;;;13.93;8.98;;;1.10;81.50;;;;;;5040390;28;20033;-67
2021/01/25 08:57:20;;;;;;;14.20;9.13;;;1.10;81.40;;;;;;5040453;28;20489;-67
2021/01/25 08:59:46;;;;;;;17.40;8.93;;;1.20;81.50;;;;;;5041092;28;20025;-69
2021/01/25 09:02:32;;;;;;;16.23;8.63;;;1.20;81.40;;;;;;5030815;28;20025;-68
2021/01/25 09:04:59;;;;;;;14.00;9.43;;;1.30;81.40;;;;;;5047209;28;20033;-69
2021/01/25 09:07:24;;;;;;;15.73;9.77;;;1.20;81.20;;;;;;5049215;28;20434;-69
2021/01/25 09:09:50;;;;;;;13.82;9.93;;;1.20;81.20;;;;;;5049260;28;20071;-67
2021/01/25 09:12:17;;;;;;;15.25;9.75;;;1.20;81.30;;;;;;5031097;28;20177;-68
2021/01/25 09:14:43;;;;;;;17.38;11.32;;;1.10;81.40;;;;;;5047302;28;20111;-69
2021/01/25 09:17:09;;;;;;;14.73;9.60;;;1.10;81.60;;;;;;5049690;28;20075;-69
2021/01/25 09:19:36;;;;;;;19.75;9.77;;;1.10;81.80;;;;;;5030252;28;20021;-68
2021/01/25 09:22:02;;;;;;;13.82;9.35;;;1.10;81.90;;;;;;5032848;28;20383;-67
2021/01/25 09:24:28;;;;;;;15.50;9.65;;;1.10;81.90;;;;;;5050431;28;20028;-68
2021/01/25 09:26:53;;;;;;;14.80;9.32;;;1.20;81.90;;;;;;5043984;28;20386;-68
2021/01/25 09:29:19;;;;;;;16.58;9.40;;;1.20;81.90;;;;;;5035783;28;20524;-68
2021/01/25 09:31:44;;;;;;;15.35;9.60;;;1.30;81.90;;;;;;5052485;28;20029;-68
2021/01/25 09:34:11;;;;;;;16.60;10.07;;;1.40;81.90;;;;;;5049049;28;20449;-68
2021/01/25 09:36:37;;;;;;;14.48;9.82;;;1.50;81.80;;;;;;5034994;28;20112;-67
2021/01/25 09:39:03;;;;;;;14.40;9.18;;;1.50;81.70;;;;;;5050559;28;20117;-68
2021/01/25 09:41:31;;;;;;;16.50;9.50;;;1.60;81.60;;;;;;5032354;28;20025;-68
2021/01/25 09:43:56;;;;;;;11.27;7.93;;;1.60;81.70;;;;;;5044362;28;20024;-68
2021/01/25 09:46:22;;;;;;;16.45;9.15;;;1.60;81.50;;;;;;5052707;28;20061;-69
2021/01/25 09:48:47;;;;;;;16.70;9.02;;;1.60;81.70;;;;;;5052414;28;20079;-68
2021/01/25 09:51:13;;;;;;;18.50;9.27;;;1.60;81.80;;;;;;5033952;28;20037;-68
2021/01/25 09:53:39;;;;;;;13.40;8.05;;;1.70;81.90;;;;;;5050722;28;20021;-68
2021/01/25 09:56:04;;;;;;;22.00;10.75;;;1.80;81.80;;;;;;5050218;28;20044;-69
2021/01/25 09:58:32;;;;;;;23.35;10.88;;;1.80;81.70;;;;;;5034286;28;20029;-69
2021/01/25 10:00:57;;;;;;;21.80;12.05;;;1.80;81.90;;;;;;5051679;28;20473;-68
2021/01/25 10:05:51;;;;;;;16.38;8.55;;;1.90;81.80;;;;;;5049287;28;20045;-70
2021/01/25 10:08:16;;;;;;;15.75;8.35;;;1.90;81.80;;;;;;5050810;28;20473;-70
2021/01/25 10:10:42;;;;;;;13.43;7.78;;;1.90;81.80;;;;;;5051947;28;20061;-69
2021/01/25 10:13:07;;;;;;;11.77;8.10;;;1.90;81.80;;;;;;5031966;28;20021;-69
2021/01/25 10:15:34;;;;;;;12.27;7.78;;;1.90;81.80;;;;;;5050839;28;20465;-69
2021/01/25 10:18:01;;;;;;;14.18;8.77;;;1.90;81.60;;;;;;5029693;28;20109;-70
2021/01/25 10:20:27;;;;;;;10.95;7.80;;;1.90;81.60;;;;;;5044991;28;20154;-70
2021/01/25 10:22:53;;;;;;;14.05;8.63;;;1.90;81.50;;;;;;5050526;28;20075;-70
2021/01/25 10:25:19;;;;;;;16.25;9.40;;;1.90;81.60;;;;;;5050552;28;20032;-70
2021/01/25 10:27:45;;;;;;;15.65;9.48;;;1.90;81.70;;;;;;5025446;28;20029;-70
2021/01/25 10:30:14;;;;;;;13.23;8.30;;;1.90;81.70;;;;;;5048261;28;20036;-70
2021/01/25 10:32:40;;;;;;;14.80;7.93;;;1.90;81.80;;;;;;5030989;28;20032;-70
2021/01/25 10:35:06;;;;;;;12.38;7.90;;;1.90;82.00;;;;;;5035247;28;20500;-70
2021/01/25 10:37:32;;;;;;;12.02;7.85;;;1.90;81.90;;;;;;5014459;28;20033;-70
2021/01/25 10:39:58;;;;;;;12.00;7.78;;;1.90;81.90;;;;;;5030421;28;20040;-69
2021/01/25 10:42:24;;;;;;;15.68;10.23;;;1.90;82.00;;;;;;5031409;28;20104;-70
2021/01/25 10:44:50;;;;;;;13.38;8.40;;;1.90;82.10;;;;;;5033111;28;20025;-69
2021/01/25 10:47:18;;;;;;;13.98;8.70;;;1.90;82.00;;;;;;5043314;28;20033;-70
2021/01/25 10:49:45;;;;;;;14.40;9.63;;;1.90;82.00;;;;;;5042791;28;20162;-70
2021/01/25 10:52:11;;;;;;;14.68;9.40;;;1.90;82.10;;;;;;5045570;28;20563;-69
2021/01/25 10:54:37;;;;;;;16.95;9.02;;;1.90;82.10;;;;;;5049562;28;20036;-69
2021/01/25 10:57:02;;;;;;;12.63;7.85;;;2.00;82.30;;;;;;5039953;28;20037;-69
2021/01/25 10:59:30;;;;;;;13.45;8.02;;;2.00;82.30;;;;;;5043536;28;20036;-69
2021/01/25 11:01:56;;;;;;;12.00;8.13;;;2.00;82.30;;;;;;5050582;28;20078;-69
2021/01/25 11:04:21;;;;;;;53.00;26.33;;;2.10;82.30;;;;;;5018197;28;20483;-69
2021/01/25 11:06:48;;;;;;;12.93;7.13;;;2.10;82.20;;;;;;5036852;28;20037;-69
2021/01/25 11:09:13;;;;;;;12.40;8.65;;;2.20;82.30;;;;;;5031027;28;20028;-69
2021/01/25 11:11:39;;;;;;;11.57;7.55;;;2.20;82.20;;;;;;5043123;28;20033;-69
2021/01/25 11:14:04;;;;;;;12.07;7.25;;;2.30;82.70;;;;;;5049641;28;20033;-69
2021/01/25 11:16:30;;;;;;;12.18;8.98;;;2.30;82.20;;;;;;5050494;28;20029;-69
2021/01/25 11:18:56;;;;;;;10.90;7.50;;;2.30;82.30;;;;;;5032505;28;20123;-69
2021/01/25 11:21:21;;;;;;;11.88;7.40;;;2.30;82.20;;;;;;5050269;28;20025;-69
2021/01/25 11:23:49;;;;;;;10.70;7.38;;;2.30;82.20;;;;;;5032557;28;20033;-69
2021/01/25 11:26:17;;;;;;;13.68;8.80;;;2.30;82.20;;;;;;5050097;28;20032;-69
2021/01/25 11:28:42;;;;;;;16.23;9.30;;;2.30;82.20;;;;;;5050735;28;20067;-69
2021/01/25 11:31:08;;;;;;;12.52;7.80;;;2.30;82.20;;;;;;5049543;28;20436;-69
2021/01/25 11:33:34;;;;;;;10.80;7.80;;;2.40;82.20;;;;;;5043180;28;20033;-69
2021/01/25 11:36:00;;;;;;;13.25;7.05;;;2.30;82.00;;;;;;5011497;28;20033;-69
2021/01/25 11:38:26;;;;;;;10.25;7.25;;;2.40;82.20;;;;;;5040014;28;20037;-69
2021/01/25 11:40:52;;;;;;;44.00;20.75;;;2.40;82.70;;;;;;5050242;28;20025;-69
2021/01/25 11:43:17;;;;;;;11.20;7.72;;;2.40;82.30;;;;;;5050220;28;20040;-69
2021/01/25 11:45:43;;;;;;;20.88;13.57;;;2.40;82.20;;;;;;5032152;28;20021;-69
2021/01/25 11:48:09;;;;;;;15.73;10.55;;;2.40;82.30;;;;;;5012901;28;20029;-69
2021/01/25 11:50:35;;;;;;;12.10;8.48;;;2.40;82.30;;;;;;5030185;28;20036;-69
2021/01/25 11:53:01;;;;;;;12.35;8.80;;;2.50;82.30;;;;;;5018330;28;20029;-69
2021/01/25 11:55:27;;;;;;;13.90;8.57;;;2.50;82.40;;;;;;5048914;28;20032;-70
2021/01/25 11:57:52;;;;;;;13.45;8.32;;;2.40;82.20;;;;;;5049667;28;20017;-69
2021/01/25 12:00:19;;;;;;;17.00;9.23;;;2.40;82.30;;;;;;5031438;28;20037;-69
2021/01/25 12:02:44;;;;;;;15.25;9.05;;;2.40;82.40;;;;;;5047039;28;20025;-69
2021/01/25 12:05:11;;;;;;;22.75;12.10;;;2.40;82.40;;;;;;5038102;28;20055;-69
2021/01/25 12:07:37;;;;;;;24.33;14.88;;;2.40;82.50;;;;;;5048142;28;20112;-69
2021/01/25 12:10:04;;;;;;;27.67;14.25;;;2.50;82.60;;;;;;5050279;28;20568;-69
2021/01/25 12:12:30;;;;;;;17.45;9.75;;;2.50;82.50;;;;;;5049087;28;20116;-69
2021/01/25 12:14:55;;;;;;;12.75;8.35;;;2.50;82.40;;;;;;5047858;28;20107;-69
2021/01/25 12:17:21;;;;;;;17.38;10.15;;;2.50;82.40;;;;;;5047681;28;20040;-70
2021/01/25 12:19:46;;;;;;;17.00;10.63;;;2.50;82.40;;;;;;5031396;28;20025;-69
2021/01/25 12:22:12;;;;;;;22.52;13.20;;;2.50;82.50;;;;;;5031124;28;20025;-70
2021/01/25 12:24:37;;;;;;;17.63;10.77;;;2.50;82.50;;;;;;5048165;28;20496;-69
2021/01/25 12:27:05;;;;;;;17.58;10.60;;;2.40;82.50;;;;;;5048577;28;20099;-70
2021/01/25 12:29:31;;;;;;;29.00;15.95;;;2.40;82.70;;;;;;5048580;28;20028;-69
2021/01/25 12:31:56;;;;;;;23.63;13.82;;;2.40;82.70;;;;;;5041403;28;20029;-69
2021/01/25 12:34:25;;;;;;;20.23;9.90;;;2.40;82.70;;;;;;5043819;28;20110;-69
2021/01/25 12:36:52;;;;;;;16.00;10.30;;;2.40;82.80;;;;;;5031637;28;20646;-70
2021/01/25 12:39:17;;;;;;;14.65;9.10;;;2.30;82.90;;;;;;5047915;28;20037;-69
2021/01/25 12:41:43;;;;;;;20.80;11.13;;;2.20;83.00;;;;;;5047611;28;20057;-69
2021/01/25 12:44:08;;;;;;;17.75;9.15;;;2.20;83.30;;;;;;5047626;28;20057;-69
2021/01/25 12:46:34;;;;;;;17.95;9.63;;;2.20;83.40;;;;;;5031109;28;20389;-69
2021/01/25 12:49:04;;;;;;;22.85;11.52;;;2.20;83.60;;;;;;5049142;28;20381;-69
2021/01/25 12:51:30;;;;;;;28.70;15.05;;;2.20;84.30;;;;;;5030333;28;20033;-69
2021/01/25 12:53:56;;;;;;;33.20;17.90;;;2.20;83.80;;;;;;5047578;28;20033;-69